sensor_id;sensor_type;location;lat;lon;timestamp;pressure;altitude;pressure_sealevel;temperature;humidity
64668;BME280;51077;42.716;23.344;2023-01-04T00:00:47;96306.16;;;10.39;50.20
64668;BME280;51077;42.716;23.344;2023-01-04T00:03:12;96303.69;;;10.41;50.19
64668;BME280;51077;42.716;23.344;2023-01-04T00:05:38;96304.44;;;10.41;50.06
64668;BME280;51077;42.716;23.344;2023-01-04T00:08:03;96304.22;;;10.45;50.16
64668;BME280;51077;42.716;23.344;2023-01-04T00:10:29;96300.47;;;10.48;50.33
64668;BME280;51077;42.716;23.344;2023-01-04T00:12:54;96310.50;;;10.51;50.04
64668;BME280;51077;42.716;23.344;2023-01-04T00:15:19;96306.50;;;10.52;50.19
64668;BME280;51077;42.716;23.344;2023-01-04T00:17:45;96305.53;;;10.55;50.01
64668;BME280;51077;42.716;23.344;2023-01-04T00:20:11;96302.31;;;10.56;49.99
64668;BME280;51077;42.716;23.344;2023-01-04T00:22:36;96312.81;;;10.58;49.98
64668;BME280;51077;42.716;23.344;2023-01-04T00:25:02;96305.34;;;10.59;49.75
64668;BME280;51077;42.716;23.344;2023-01-04T00:27:27;96308.34;;;10.61;49.74
64668;BME280;51077;42.716;23.344;2023-01-04T00:29:52;96309.09;;;10.61;49.72
64668;BME280;51077;42.716;23.344;2023-01-04T00:32:18;96311.06;;;10.61;49.75
64668;BME280;51077;42.716;23.344;2023-01-04T00:34:43;96306.63;;;10.63;49.73
64668;BME280;51077;42.716;23.344;2023-01-04T00:37:08;96303.88;;;10.63;49.71
64668;BME280;51077;42.716;23.344;2023-01-04T00:39:34;96306.13;;;10.65;49.81
64668;BME280;51077;42.716;23.344;2023-01-04T00:41:59;96307.38;;;10.64;49.92
64668;BME280;51077;42.716;23.344;2023-01-04T00:44:31;96306.13;;;10.65;49.99
64668;BME280;51077;42.716;23.344;2023-01-04T00:47:02;96304.88;;;10.66;50.16
64668;BME280;51077;42.716;23.344;2023-01-04T00:49:28;96305.63;;;10.66;50.76
64668;BME280;51077;42.716;23.344;2023-01-04T00:51:54;96318.13;;;10.67;50.86
64668;BME280;51077;42.716;23.344;2023-01-04T00:54:20;96310.66;;;10.68;51.07
64668;BME280;51077;42.716;23.344;2023-01-04T00:56:47;96309.41;;;10.69;51.33
64668;BME280;51077;42.716;23.344;2023-01-04T00:59:16;96315.94;;;10.71;51.66
64668;BME280;51077;42.716;23.344;2023-01-04T01:01:42;96314.94;;;10.74;51.94
64668;BME280;51077;42.716;23.344;2023-01-04T01:04:11;96320.69;;;10.76;52.32
64668;BME280;51077;42.716;23.344;2023-01-04T01:06:37;96331.47;;;10.80;52.36
64668;BME280;51077;42.716;23.344;2023-01-04T01:09:03;96326.50;;;10.84;52.04
64668;BME280;51077;42.716;23.344;2023-01-04T01:11:28;96333.00;;;10.87;52.32
64668;BME280;51077;42.716;23.344;2023-01-04T01:13:55;96336.50;;;10.87;52.25
64668;BME280;51077;42.716;23.344;2023-01-04T01:16:22;96340.00;;;10.88;51.99
64668;BME280;51077;42.716;23.344;2023-01-04T01:18:48;96336.25;;;10.85;51.89
64668;BME280;51077;42.716;23.344;2023-01-04T01:21:17;96341.47;;;10.83;51.75
64668;BME280;51077;42.716;23.344;2023-01-04T01:23:44;96345.66;;;10.78;51.58
64668;BME280;51077;42.716;23.344;2023-01-04T01:26:15;96345.88;;;10.75;51.41
64668;BME280;51077;42.716;23.344;2023-01-04T01:28:41;96341.09;;;10.70;51.32
64668;BME280;51077;42.716;23.344;2023-01-04T01:31:10;96336.31;;;10.65;51.54
64668;BME280;51077;42.716;23.344;2023-01-04T01:33:36;96328.78;;;10.60;51.30
64668;BME280;51077;42.716;23.344;2023-01-04T01:36:03;96335.75;;;10.55;51.33
64668;BME280;51077;42.716;23.344;2023-01-04T01:38:29;96326.97;;;10.51;51.37
64668;BME280;51077;42.716;23.344;2023-01-04T01:40:54;96329.19;;;10.47;51.44
64668;BME280;51077;42.716;23.344;2023-01-04T01:43:43;96328.16;;;10.44;51.29
64668;BME280;51077;42.716;23.344;2023-01-04T01:46:07;96325.34;;;10.39;51.63
64668;BME280;51077;42.716;23.344;2023-01-04T01:48:33;96324.81;;;10.35;51.68
64668;BME280;51077;42.716;23.344;2023-01-04T01:51:01;96322.28;;;10.31;51.66
64668;BME280;51077;42.716;23.344;2023-01-04T01:53:30;96317.78;;;10.28;52.13
64668;BME280;51077;42.716;23.344;2023-01-04T01:55:57;96307.75;;;10.25;52.49
64668;BME280;51077;42.716;23.344;2023-01-04T01:58:36;96314.47;;;10.24;52.81
64668;BME280;51077;42.716;23.344;2023-01-04T02:01:03;96309.75;;;10.24;53.10
64668;BME280;51077;42.716;23.344;2023-01-04T02:03:32;96314.75;;;10.26;53.59
64668;BME280;51077;42.716;23.344;2023-01-04T02:06:00;96308.81;;;10.27;53.87
64668;BME280;51077;42.716;23.344;2023-01-04T02:08:28;96305.06;;;10.30;53.93
64668;BME280;51077;42.716;23.344;2023-01-04T02:10:54;96313.59;;;10.32;54.31
64668;BME280;51077;42.716;23.344;2023-01-04T02:13:23;96309.09;;;10.35;54.49
64668;BME280;51077;42.716;23.344;2023-01-04T02:16:11;96306.16;;;10.39;54.58
64668;BME280;51077;42.716;23.344;2023-01-04T02:22:05;96315.66;;;10.43;55.39
64668;BME280;51077;42.716;23.344;2023-01-04T02:38:30;96299.31;;;10.54;56.12
64668;BME280;51077;42.716;23.344;2023-01-04T02:41:40;96300.31;;;10.57;56.11
64668;BME280;51077;42.716;23.344;2023-01-04T02:44:01;96308.06;;;10.59;56.33
64668;BME280;51077;42.716;23.344;2023-01-04T02:46:56;96304.34;;;10.62;56.23
64668;BME280;51077;42.716;23.344;2023-01-04T02:49:24;96309.38;;;10.63;56.08
64668;BME280;51077;42.716;23.344;2023-01-04T02:52:08;96310.88;;;10.64;56.28
64668;BME280;51077;42.716;23.344;2023-01-04T02:54:34;96295.41;;;10.67;56.44
64668;BME280;51077;42.716;23.344;2023-01-04T02:57:07;96300.13;;;10.66;56.31
64668;BME280;51077;42.716;23.344;2023-01-04T03:00:09;96305.91;;;10.68;56.55
64668;BME280;51077;42.716;23.344;2023-01-04T03:08:55;96299.91;;;10.70;56.83
64668;BME280;51077;42.716;23.344;2023-01-04T03:11:23;96300.94;;;10.72;56.83
64668;BME280;51077;42.716;23.344;2023-01-04T03:14:23;96300.19;;;10.72;56.70
64668;BME280;51077;42.716;23.344;2023-01-04T03:16:51;96311.19;;;10.72;56.92
64668;BME280;51077;42.716;23.344;2023-01-04T03:19:21;96304.94;;;10.71;56.89
64668;BME280;51077;42.716;23.344;2023-01-04T03:22:08;96305.41;;;10.70;57.02
64668;BME280;51077;42.716;23.344;2023-01-04T03:24:55;96310.66;;;10.68;57.14
64668;BME280;51077;42.716;23.344;2023-01-04T03:27:40;96314.63;;;10.67;57.33
64668;BME280;51077;42.716;23.344;2023-01-04T03:30:27;96312.66;;;10.67;57.48
64668;BME280;51077;42.716;23.344;2023-01-04T03:33:14;96320.88;;;10.67;57.35
64668;BME280;51077;42.716;23.344;2023-01-04T03:36:02;96311.13;;;10.66;57.31
64668;BME280;51077;42.716;23.344;2023-01-04T03:45:13;96304.63;;;10.64;57.61
64668;BME280;51077;42.716;23.344;2023-01-04T03:48:07;96310.13;;;10.64;57.53
64668;BME280;51077;42.716;23.344;2023-01-04T03:53:23;96310.66;;;10.68;57.27
64668;BME280;51077;42.716;23.344;2023-01-04T03:55:50;96314.91;;;10.69;57.47
64668;BME280;51077;42.716;23.344;2023-01-04T03:58:18;96312.41;;;10.71;57.48
64668;BME280;51077;42.716;23.344;2023-01-04T04:00:45;96316.69;;;10.72;57.37
64668;BME280;51077;42.716;23.344;2023-01-04T04:03:10;96318.19;;;10.73;57.28
64668;BME280;51077;42.716;23.344;2023-01-04T04:05:40;96318.44;;;10.75;57.50
64668;BME280;51077;42.716;23.344;2023-01-04T04:08:25;96317.97;;;10.76;57.47
64668;BME280;51077;42.716;23.344;2023-01-04T04:11:05;96321.72;;;10.79;57.23
64668;BME280;51077;42.716;23.344;2023-01-04T04:13:49;96326.44;;;10.78;57.59
64668;BME280;51077;42.716;23.344;2023-01-04T04:16:15;96332.22;;;10.80;57.41
64668;BME280;51077;42.716;23.344;2023-01-04T04:18:41;96330.22;;;10.81;57.41
64668;BME280;51077;42.716;23.344;2023-01-04T04:21:07;96327.47;;;10.81;57.38
64668;BME280;51077;42.716;23.344;2023-01-04T04:23:32;96326.22;;;10.82;57.44
64668;BME280;51077;42.716;23.344;2023-01-04T04:25:58;96328.75;;;10.86;57.20
64668;BME280;51077;42.716;23.344;2023-01-04T04:28:23;96333.00;;;10.87;57.37
64668;BME280;51077;42.716;23.344;2023-01-04T04:30:49;96335.53;;;10.90;57.32
64668;BME280;51077;42.716;23.344;2023-01-04T04:33:14;96333.31;;;10.94;58.77
64668;BME280;51077;42.716;23.344;2023-01-04T04:35:40;96340.59;;;10.97;59.02
64668;BME280;51077;42.716;23.344;2023-01-04T04:38:05;96340.84;;;10.99;58.99
64668;BME280;51077;42.716;23.344;2023-01-04T04:40:30;96349.09;;;10.99;58.95
64668;BME280;51077;42.716;23.344;2023-01-04T04:43:14;96340.84;;;10.99;58.78
64668;BME280;51077;42.716;23.344;2023-01-04T04:45:40;96341.59;;;11.00;58.49
64668;BME280;51077;42.716;23.344;2023-01-04T04:48:05;96336.84;;;11.00;58.33
64668;BME280;51077;42.716;23.344;2023-01-04T04:50:30;96347.09;;;11.00;58.34
64668;BME280;51077;42.716;23.344;2023-01-04T04:52:56;96346.34;;;10.99;58.11
64668;BME280;51077;42.716;23.344;2023-01-04T04:55:21;96341.34;;;10.98;58.19
64668;BME280;51077;42.716;23.344;2023-01-04T04:57:47;96341.81;;;10.96;58.16
64668;BME280;51077;42.716;23.344;2023-01-04T05:00:12;96352.81;;;10.96;58.27
64668;BME280;51077;42.716;23.344;2023-01-04T05:02:38;96348.84;;;10.97;57.92
64668;BME280;51077;42.716;23.344;2023-01-04T05:05:04;96346.09;;;10.97;57.93
64668;BME280;51077;42.716;23.344;2023-01-04T05:07:29;96351.09;;;10.99;57.70
64668;BME280;51077;42.716;23.344;2023-01-04T05:09:55;96354.34;;;10.97;57.90
64668;BME280;51077;42.716;23.344;2023-01-04T05:12:20;96355.53;;;10.96;57.70
64668;BME280;51077;42.716;23.344;2023-01-04T05:15:04;96359.31;;;10.99;57.66
64668;BME280;51077;42.716;23.344;2023-01-04T05:17:30;96359.81;;;10.97;57.63
64668;BME280;51077;42.716;23.344;2023-01-04T05:19:55;96359.53;;;10.95;57.83
64668;BME280;51077;42.716;23.344;2023-01-04T05:22:20;96351.31;;;10.95;57.71
64668;BME280;51077;42.716;23.344;2023-01-04T05:24:46;96356.78;;;10.95;57.65
64668;BME280;51077;42.716;23.344;2023-01-04T05:27:11;96363.78;;;10.96;57.69
64668;BME280;51077;42.716;23.344;2023-01-04T05:29:37;96360.28;;;10.96;57.57
64668;BME280;51077;42.716;23.344;2023-01-04T05:32:21;96366.28;;;10.94;57.62
64668;BME280;51077;42.716;23.344;2023-01-04T05:34:46;96365.53;;;10.94;57.82
64668;BME280;51077;42.716;23.344;2023-01-04T05:37:11;96367.53;;;10.93;57.76
64668;BME280;51077;42.716;23.344;2023-01-04T05:39:37;96373.78;;;10.94;57.55
64668;BME280;51077;42.716;23.344;2023-01-04T05:42:02;96377.28;;;10.94;57.69
64668;BME280;51077;42.716;23.344;2023-01-04T05:44:46;96381.25;;;10.93;57.66
64668;BME280;51077;42.716;23.344;2023-01-04T05:47:12;96372.28;;;10.93;57.70
64668;BME280;51077;42.716;23.344;2023-01-04T05:49:37;96382.47;;;10.92;57.63
64668;BME280;51077;42.716;23.344;2023-01-04T05:52:02;96381.72;;;10.92;57.50
64668;BME280;51077;42.716;23.344;2023-01-04T05:54:28;96374.75;;;10.91;57.62
64668;BME280;51077;42.716;23.344;2023-01-04T05:56:53;96382.47;;;10.92;57.65
64668;BME280;51077;42.716;23.344;2023-01-04T05:59:18;96386.00;;;10.93;57.66
64668;BME280;51077;42.716;23.344;2023-01-04T06:01:44;96385.22;;;10.92;57.38
64668;BME280;51077;42.716;23.344;2023-01-04T06:04:09;96381.25;;;10.93;57.52
64668;BME280;51077;42.716;23.344;2023-01-04T06:06:34;96382.00;;;10.94;57.57
64668;BME280;51077;42.716;23.344;2023-01-04T06:09:00;96382.25;;;10.96;57.34
64668;BME280;51077;42.716;23.344;2023-01-04T06:11:25;96384.25;;;10.95;57.40
64668;BME280;51077;42.716;23.344;2023-01-04T06:13:51;96389.00;;;10.95;57.35
64668;BME280;51077;42.716;23.344;2023-01-04T06:16:16;96387.75;;;10.96;57.61
64668;BME280;51077;42.716;23.344;2023-01-04T06:18:41;96390.50;;;10.96;57.22
64668;BME280;51077;42.716;23.344;2023-01-04T06:21:07;96398.28;;;10.97;57.40
64668;BME280;51077;42.716;23.344;2023-01-04T06:23:32;96403.00;;;10.97;57.26
64668;BME280;51077;42.716;23.344;2023-01-04T06:25:58;96402.53;;;10.98;57.31
64668;BME280;51077;42.716;23.344;2023-01-04T06:28:23;96407.53;;;11.00;57.26
64668;BME280;51077;42.716;23.344;2023-01-04T06:30:48;96398.53;;;10.99;57.32
64668;BME280;51077;42.716;23.344;2023-01-04T06:33:14;96395.03;;;10.99;57.39
64668;BME280;51077;42.716;23.344;2023-01-04T06:35:39;96408.28;;;11.00;57.16
64668;BME280;51077;42.716;23.344;2023-01-04T06:38:04;96406.78;;;10.99;57.52
64668;BME280;51077;42.716;23.344;2023-01-04T06:40:30;96414.53;;;11.01;57.30
64668;BME280;51077;42.716;23.344;2023-01-04T06:42:55;96409.81;;;11.01;57.41
64668;BME280;51077;42.716;23.344;2023-01-04T06:45:21;96416.03;;;11.02;57.44
64668;BME280;51077;42.716;23.344;2023-01-04T06:47:46;96420.28;;;11.03;57.58
64668;BME280;51077;42.716;23.344;2023-01-04T06:50:12;96415.81;;;11.05;57.19
64668;BME280;51077;42.716;23.344;2023-01-04T06:52:37;96417.34;;;11.06;57.18
64668;BME280;51077;42.716;23.344;2023-01-04T06:55:04;96415.59;;;11.09;57.30
64668;BME280;51077;42.716;23.344;2023-01-04T06:57:30;96417.88;;;11.11;57.07
64668;BME280;51077;42.716;23.344;2023-01-04T06:59:56;96413.88;;;11.12;57.03
64668;BME280;51077;42.716;23.344;2023-01-04T07:02:22;96415.66;;;11.15;57.13
64668;BME280;51077;42.716;23.344;2023-01-04T07:04:47;96417.41;;;11.18;56.77
64668;BME280;51077;42.716;23.344;2023-01-04T07:07:12;96414.94;;;11.20;56.91
64668;BME280;51077;42.716;23.344;2023-01-04T07:09:38;96419.44;;;11.23;56.71
64668;BME280;51077;42.716;23.344;2023-01-04T07:12:04;96421.72;;;11.24;56.82
64668;BME280;51077;42.716;23.344;2023-01-04T07:14:29;96412.97;;;11.26;56.84
64668;BME280;51077;42.716;23.344;2023-01-04T07:16:55;96431.72;;;11.27;56.76
64668;BME280;51077;42.716;23.344;2023-01-04T07:19:20;96434.75;;;11.29;56.58
64668;BME280;51077;42.716;23.344;2023-01-04T07:21:45;96433.78;;;11.32;56.45
64668;BME280;51077;42.716;23.344;2023-01-04T07:24:11;96436.03;;;11.34;56.72
64668;BME280;51077;42.716;23.344;2023-01-04T07:26:36;96442.56;;;11.37;56.58
64668;BME280;51077;42.716;23.344;2023-01-04T07:29:02;96442.31;;;11.40;56.38
64668;BME280;51077;42.716;23.344;2023-01-04T07:31:40;96440.59;;;11.43;56.29
64668;BME280;51077;42.716;23.344;2023-01-04T07:34:06;96440.09;;;11.44;56.14
64668;BME280;51077;42.716;23.344;2023-01-04T07:36:32;96437.88;;;11.48;56.19
64668;BME280;51077;42.716;23.344;2023-01-04T07:39:01;96441.91;;;11.53;55.89
64668;BME280;51077;42.716;23.344;2023-01-04T07:41:26;96438.94;;;11.56;55.81
64668;BME280;51077;42.716;23.344;2023-01-04T07:43:52;96442.97;;;11.61;55.76
64668;BME280;51077;42.716;23.344;2023-01-04T07:46:17;96436.50;;;11.64;55.81
64668;BME280;51077;42.716;23.344;2023-01-04T07:48:42;96435.03;;;11.69;55.45
64668;BME280;51077;42.716;23.344;2023-01-04T07:51:08;96437.53;;;11.72;55.52
64668;BME280;51077;42.716;23.344;2023-01-04T07:53:33;96449.31;;;11.78;55.46
64668;BME280;51077;42.716;23.344;2023-01-04T07:55:59;96440.84;;;11.82;55.09
64668;BME280;51077;42.716;23.344;2023-01-04T07:58:26;96453.91;;;11.87;55.05
64668;BME280;51077;42.716;23.344;2023-01-04T08:00:54;96440.44;;;11.89;54.81
64668;BME280;51077;42.716;23.344;2023-01-04T08:03:20;96453.19;;;11.92;54.75
64668;BME280;51077;42.716;23.344;2023-01-04T08:05:45;96450.22;;;12.01;54.58
64668;BME280;51077;42.716;23.344;2023-01-04T08:08:11;96454.78;;;12.10;54.22
64668;BME280;51077;42.716;23.344;2023-01-04T08:10:37;96449.34;;;12.21;54.10
64668;BME280;51077;42.716;23.344;2023-01-04T08:13:02;96461.16;;;12.33;53.77
64668;BME280;51077;42.716;23.344;2023-01-04T08:15:27;96465.69;;;12.42;53.62
64668;BME280;51077;42.716;23.344;2023-01-04T08:17:54;96461.69;;;12.48;53.46
64668;BME280;51077;42.716;23.344;2023-01-04T08:20:20;96456.72;;;12.52;53.41
64668;BME280;51077;42.716;23.344;2023-01-04T08:22:45;96457.50;;;12.58;53.08
64668;BME280;51077;42.716;23.344;2023-01-04T08:25:11;96461.00;;;12.65;53.12
64668;BME280;51077;42.716;23.344;2023-01-04T08:27:36;96458.78;;;12.69;52.91
64668;BME280;51077;42.716;23.344;2023-01-04T08:30:02;96454.75;;;12.70;52.89
64668;BME280;51077;42.716;23.344;2023-01-04T08:32:28;96461.28;;;12.72;52.74
64668;BME280;51077;42.716;23.344;2023-01-04T08:34:53;96458.03;;;12.74;52.50
64668;BME280;51077;42.716;23.344;2023-01-04T08:37:19;96455.28;;;12.74;52.75
64668;BME280;51077;42.716;23.344;2023-01-04T08:39:45;96452.78;;;12.76;52.65
64668;BME280;51077;42.716;23.344;2023-01-04T08:42:10;96454.28;;;12.77;52.52
64668;BME280;51077;42.716;23.344;2023-01-04T08:44:36;96464.31;;;12.80;52.32
64668;BME280;51077;42.716;23.344;2023-01-04T08:47:02;96470.06;;;12.82;52.23
64668;BME280;51077;42.716;23.344;2023-01-04T08:49:27;96459.06;;;12.82;52.21
64668;BME280;51077;42.716;23.344;2023-01-04T08:51:53;96459.28;;;12.84;52.16
64668;BME280;51077;42.716;23.344;2023-01-04T08:54:18;96460.31;;;12.87;52.10
64668;BME280;51077;42.716;23.344;2023-01-04T08:56:44;96462.81;;;12.90;51.95
64668;BME280;51077;42.716;23.344;2023-01-04T08:59:10;96463.34;;;12.94;51.97
64668;BME280;51077;42.716;23.344;2023-01-04T09:01:37;96467.09;;;12.97;52.00
64668;BME280;51077;42.716;23.344;2023-01-04T09:04:03;96459.84;;;12.99;51.83
64668;BME280;51077;42.716;23.344;2023-01-04T09:06:29;96468.34;;;13.01;51.60
64668;BME280;51077;42.716;23.344;2023-01-04T09:08:55;96474.13;;;13.03;51.58
64668;BME280;51077;42.716;23.344;2023-01-04T09:11:22;96454.09;;;13.03;51.70
64668;BME280;51077;42.716;23.344;2023-01-04T09:13:48;96464.34;;;13.02;51.59
64668;BME280;51077;42.716;23.344;2023-01-04T09:16:15;96461.59;;;13.02;51.54
64668;BME280;51077;42.716;23.344;2023-01-04T09:18:43;96455.81;;;13.00;51.62
64668;BME280;51077;42.716;23.344;2023-01-04T09:21:19;96454.84;;;12.98;51.58
64668;BME280;51077;42.716;23.344;2023-01-04T09:23:45;96456.06;;;12.97;51.78
64668;BME280;51077;42.716;23.344;2023-01-04T09:26:14;96453.81;;;12.95;51.57
64668;BME280;51077;42.716;23.344;2023-01-04T09:28:40;96451.31;;;12.92;51.50
64668;BME280;51077;42.716;23.344;2023-01-04T09:31:11;96447.03;;;12.91;51.85
64668;BME280;51077;42.716;23.344;2023-01-04T09:33:37;96448.78;;;12.88;51.51
64668;BME280;51077;42.716;23.344;2023-01-04T09:36:04;96451.53;;;12.88;51.62
64668;BME280;51077;42.716;23.344;2023-01-04T09:38:31;96447.03;;;12.85;51.59
64668;BME280;51077;42.716;23.344;2023-01-04T09:43:47;96450.53;;;12.80;51.39
64668;BME280;51077;42.716;23.344;2023-01-04T09:46:20;96447.28;;;12.76;51.71
64668;BME280;51077;42.716;23.344;2023-01-04T09:48:50;96445.50;;;12.73;51.63
64668;BME280;51077;42.716;23.344;2023-01-04T09:51:19;96450.75;;;12.71;51.66
64668;BME280;51077;42.716;23.344;2023-01-04T09:53:57;96439.50;;;12.69;51.75
64668;BME280;51077;42.716;23.344;2023-01-04T09:56:32;96439.22;;;12.67;51.99
64668;BME280;51077;42.716;23.344;2023-01-04T09:59:10;96436.72;;;12.63;51.79
64668;BME280;51077;42.716;23.344;2023-01-04T10:01:43;96443.47;;;12.62;51.60
64668;BME280;51077;42.716;23.344;2023-01-04T10:04:22;96441.97;;;12.61;51.77
64668;BME280;51077;42.716;23.344;2023-01-04T10:06:48;96449.47;;;12.61;51.72
64668;BME280;51077;42.716;23.344;2023-01-04T10:09:15;96448.47;;;12.58;51.65
64668;BME280;51077;42.716;23.344;2023-01-04T10:12:10;96446.97;;;12.57;51.66
64668;BME280;51077;42.716;23.344;2023-01-04T10:15:04;96446.72;;;12.55;51.86
64668;BME280;51077;42.716;23.344;2023-01-04T10:18:08;96440.47;;;12.54;51.71
64668;BME280;51077;42.716;23.344;2023-01-04T10:23:05;96438.94;;;12.53;51.54
64668;BME280;51077;42.716;23.344;2023-01-04T10:28:20;96436.97;;;12.60;51.64
64668;BME280;51077;42.716;23.344;2023-01-04T10:33:53;96436.97;;;12.65;51.12
64668;BME280;51077;42.716;23.344;2023-01-04T10:36:27;96430.19;;;12.66;51.28
64668;BME280;51077;42.716;23.344;2023-01-04T10:39:10;96432.47;;;12.68;51.29
64668;BME280;51077;42.716;23.344;2023-01-04T10:41:45;96433.22;;;12.68;51.14
64668;BME280;51077;42.716;23.344;2023-01-04T10:44:15;96431.47;;;12.65;51.22
64668;BME280;51077;42.716;23.344;2023-01-04T10:46:46;96438.97;;;12.65;51.32
64668;BME280;51077;42.716;23.344;2023-01-04T10:52:04;96447.00;;;12.63;51.16
64668;BME280;51077;42.716;23.344;2023-01-04T10:54:48;96434.44;;;12.62;51.29
64668;BME280;51077;42.716;23.344;2023-01-04T10:57:25;96433.22;;;12.63;51.12
64668;BME280;51077;42.716;23.344;2023-01-04T11:00:33;96421.69;;;12.64;51.26
64668;BME280;51077;42.716;23.344;2023-01-04T11:05:47;96424.22;;;12.73;51.04
64668;BME280;51077;42.716;23.344;2023-01-04T11:08:22;96421.50;;;12.85;50.69
64668;BME280;51077;42.716;23.344;2023-01-04T11:13:18;96416.25;;;13.15;50.06
64668;BME280;51077;42.716;23.344;2023-01-04T11:15:44;96406.50;;;13.30;49.81
64668;BME280;51077;42.716;23.344;2023-01-04T11:18:12;96401.72;;;13.48;49.37
64668;BME280;51077;42.716;23.344;2023-01-04T11:20:38;96401.19;;;13.66;49.31
64668;BME280;51077;42.716;23.344;2023-01-04T11:23:11;96394.88;;;13.82;48.57
64668;BME280;51077;42.716;23.344;2023-01-04T11:25:48;96391.81;;;13.97;48.18
64668;BME280;51077;42.716;23.344;2023-01-04T11:33:59;96392.44;;;14.37;47.32
64668;BME280;51077;42.716;23.344;2023-01-04T11:36:45;96388.84;;;14.48;47.08
64668;BME280;51077;42.716;23.344;2023-01-04T11:39:21;96381.56;;;14.56;46.96
64668;BME280;51077;42.716;23.344;2023-01-04T11:41:58;96379.22;;;14.66;46.71
64668;BME280;51077;42.716;23.344;2023-01-04T11:44:24;96380.19;;;14.74;46.62
64668;BME280;51077;42.716;23.344;2023-01-04T11:47:20;96381.34;;;14.90;46.13
64668;BME280;51077;42.716;23.344;2023-01-04T11:49:46;96380.50;;;15.00;46.05
64668;BME280;51077;42.716;23.344;2023-01-04T11:54:57;96380.16;;;15.15;45.73
64668;BME280;51077;42.716;23.344;2023-01-04T11:57:39;96370.47;;;15.27;45.36
64668;BME280;51077;42.716;23.344;2023-01-04T12:00:14;96374.56;;;15.45;45.08
64668;BME280;51077;42.716;23.344;2023-01-04T12:02:40;96363.28;;;15.73;44.46
64668;BME280;51077;42.716;23.344;2023-01-04T12:05:18;96364.75;;;16.18;43.86
64668;BME280;51077;42.716;23.344;2023-01-04T12:07:44;96355.72;;;16.36;43.49
64668;BME280;51077;42.716;23.344;2023-01-04T12:10:22;96355.78;;;16.49;43.21
64668;BME280;51077;42.716;23.344;2023-01-04T12:12:51;96354.78;;;16.66;42.71
64668;BME280;51077;42.716;23.344;2023-01-04T12:15:24;96367.16;;;16.65;42.70
64668;BME280;51077;42.716;23.344;2023-01-04T12:17:55;96359.75;;;16.54;42.83
64668;BME280;51077;42.716;23.344;2023-01-04T12:20:26;96364.72;;;16.42;42.98
64668;BME280;51077;42.716;23.344;2023-01-04T12:22:52;96370.19;;;16.29;42.96
64668;BME280;51077;42.716;23.344;2023-01-04T12:25:43;96357.03;;;16.11;43.45
64668;BME280;51077;42.716;23.344;2023-01-04T12:28:44;96366.13;;;15.87;43.77
64668;BME280;51077;42.716;23.344;2023-01-04T12:33:51;96353.69;;;15.50;44.59
64668;BME280;51077;42.716;23.344;2023-01-04T12:47:02;96354.75;;;14.81;45.94
64668;BME280;51077;42.716;23.344;2023-01-04T12:49:51;96350.56;;;14.69;46.11
64668;BME280;51077;42.716;23.344;2023-01-04T12:54:49;96352.69;;;14.51;46.56
64668;BME280;51077;42.716;23.344;2023-01-04T12:59:56;96350.75;;;14.35;46.78
64668;BME280;51077;42.716;23.344;2023-01-04T13:02:27;96351.03;;;14.26;47.08
64668;BME280;51077;42.716;23.344;2023-01-04T13:04:58;96344.56;;;14.18;47.32
64668;BME280;51077;42.716;23.344;2023-01-04T13:07:27;96346.59;;;14.12;47.28
64668;BME280;51077;42.716;23.344;2023-01-04T13:10:17;96348.63;;;14.05;47.36
64668;BME280;51077;42.716;23.344;2023-01-04T13:18:38;96350.97;;;13.90;47.73
64668;BME280;51077;42.716;23.344;2023-01-04T13:21:14;96348.97;;;13.85;47.92
64668;BME280;51077;42.716;23.344;2023-01-04T13:23:50;96354.00;;;13.81;48.02
64668;BME280;51077;42.716;23.344;2023-01-04T13:26:35;96355.53;;;13.76;48.20
64668;BME280;51077;42.716;23.344;2023-01-04T13:31:30;96358.31;;;13.65;48.43
64668;BME280;51077;42.716;23.344;2023-01-04T13:33:56;96354.31;;;13.61;48.53
64668;BME280;51077;42.716;23.344;2023-01-04T13:36:22;96358.59;;;13.56;48.59
64668;BME280;51077;42.716;23.344;2023-01-04T13:38:47;96352.56;;;13.52;48.60
64668;BME280;51077;42.716;23.344;2023-01-04T13:41:20;96352.81;;;13.48;48.73
64668;BME280;51077;42.716;23.344;2023-01-04T13:44:10;96366.63;;;13.43;49.00
64668;BME280;51077;42.716;23.344;2023-01-04T13:46:41;96357.13;;;13.38;48.96
64668;BME280;51077;42.716;23.344;2023-01-04T13:49:10;96356.84;;;13.36;49.13
64668;BME280;51077;42.716;23.344;2023-01-04T13:51:38;96362.38;;;13.30;49.08
64668;BME280;51077;42.716;23.344;2023-01-04T13:54:15;96355.38;;;13.29;49.22
64668;BME280;51077;42.716;23.344;2023-01-04T13:56:41;96352.13;;;13.25;49.33
64668;BME280;51077;42.716;23.344;2023-01-04T13:59:08;96366.13;;;13.22;49.58
64668;BME280;51077;42.716;23.344;2023-01-04T14:01:37;96366.38;;;13.18;49.37
64668;BME280;51077;42.716;23.344;2023-01-04T14:04:06;96361.88;;;13.15;49.38
64668;BME280;51077;42.716;23.344;2023-01-04T14:06:42;96356.63;;;13.12;49.57
64668;BME280;51077;42.716;23.344;2023-01-04T14:12:07;96355.09;;;13.05;49.64
64668;BME280;51077;42.716;23.344;2023-01-04T14:31:12;96363.09;;;12.75;50.50
64668;BME280;51077;42.716;23.344;2023-01-04T14:33:45;96368.88;;;12.71;50.53
64668;BME280;51077;42.716;23.344;2023-01-04T14:36:29;96365.88;;;12.69;50.56
64668;BME280;51077;42.716;23.344;2023-01-04T14:39:07;96366.84;;;12.66;50.71
64668;BME280;51077;42.716;23.344;2023-01-04T14:44:12;96370.88;;;12.60;50.89
64668;BME280;51077;42.716;23.344;2023-01-04T14:46:38;96366.09;;;12.54;50.79
64668;BME280;51077;42.716;23.344;2023-01-04T14:49:03;96356.81;;;12.52;50.89
64668;BME280;51077;42.716;23.344;2023-01-04T14:51:36;96362.84;;;12.50;51.13
64668;BME280;51077;42.716;23.344;2023-01-04T14:54:04;96363.06;;;12.47;51.04